createdAt,value
2023-02-11T00:00:23.217Z,0.70
2023-02-11T00:02:29.744Z,0.68
2023-02-11T00:04:34.929Z,0.67
2023-02-11T00:06:39.571Z,0.67
2023-02-11T00:08:47.222Z,0.64
2023-02-11T00:10:54.753Z,0.64
2023-02-11T00:12:59.595Z,0.65
2023-02-11T00:15:04.394Z,0.67
2023-02-11T00:17:09.589Z,0.65
2023-02-11T00:19:14.137Z,0.64
2023-02-11T00:21:21.332Z,0.63
2023-02-11T00:23:26.230Z,0.62
2023-02-11T00:25:33.668Z,0.65
2023-02-11T00:27:39.668Z,0.64
2023-02-11T00:29:44.584Z,0.64
2023-02-11T00:31:49.461Z,0.65
2023-02-11T00:33:54.832Z,0.63
2023-02-11T00:35:59.717Z,0.59
2023-02-11T00:38:04.603Z,0.60
2023-02-11T00:40:09.946Z,0.55
2023-02-11T00:42:18.094Z,0.55
2023-02-11T00:44:23.342Z,0.55
2023-02-11T00:46:28.455Z,0.56
2023-02-11T00:48:33.401Z,0.58
2023-02-11T00:50:38.855Z,0.56
2023-02-11T00:52:46.621Z,0.59
2023-02-11T00:54:51.465Z,0.58
2023-02-11T00:56:56.285Z,0.61
2023-02-11T00:59:05.358Z,0.65
2023-02-11T01:01:10.259Z,0.68
2023-02-11T01:03:15.054Z,0.72
2023-02-11T01:05:20.063Z,0.74
2023-02-11T01:07:26.498Z,0.77
2023-02-11T01:09:32.684Z,0.77
2023-02-11T01:11:37.537Z,0.75
2023-02-11T01:13:42.724Z,0.73
2023-02-11T01:15:50.508Z,0.69
2023-02-11T01:17:55.657Z,0.67
2023-02-11T01:20:00.493Z,0.68
2023-02-11T01:22:05.364Z,0.63
2023-02-11T01:24:14.105Z,0.66
2023-02-11T01:26:22.634Z,0.66
2023-02-11T01:28:30.793Z,0.75
2023-02-11T01:30:38.009Z,0.84
2023-02-11T01:32:45.446Z,0.93
2023-02-11T01:34:50.274Z,0.93
2023-02-11T01:37:00.046Z,0.92
2023-02-11T01:39:08.697Z,0.95
2023-02-11T01:41:17.431Z,0.97
2023-02-11T01:43:23.683Z,0.97
2023-02-11T01:45:53.521Z,0.97
2023-02-11T01:48:02.615Z,0.99
2023-02-11T01:50:07.928Z,1.02
2023-02-11T01:52:16.548Z,1.06
2023-02-11T01:54:37.639Z,1.10
2023-02-11T01:57:02.782Z,1.13
2023-02-11T01:59:14.580Z,1.15
2023-02-11T02:01:26.080Z,1.19
2023-02-11T02:03:36.493Z,1.24
2023-02-11T02:05:50.139Z,1.15
2023-02-11T02:08:03.202Z,1.15
2023-02-11T02:10:14.274Z,1.07
2023-02-11T02:12:19.121Z,1.01
2023-02-11T02:14:24.067Z,0.98
2023-02-11T02:16:36.459Z,0.98
2023-02-11T02:18:51.600Z,1.00
2023-02-11T02:21:35.072Z,0.99
2023-02-11T02:23:59.681Z,0.99
2023-02-11T02:26:36.864Z,1.01
2023-02-11T02:29:22.345Z,0.98
2023-02-11T02:31:41.881Z,1.00
2023-02-11T02:33:56.653Z,1.03
2023-02-11T02:36:12.302Z,1.07
2023-02-11T02:38:21.773Z,1.08
2023-02-11T02:40:32.328Z,1.12
2023-02-11T02:42:37.868Z,1.16
2023-02-11T02:44:42.823Z,1.20
2023-02-11T02:46:47.658Z,1.21
2023-02-11T02:48:56.759Z,1.25
2023-02-11T02:51:12.362Z,1.28
2023-02-11T02:53:23.393Z,1.25
2023-02-11T02:55:40.578Z,1.26
2023-02-11T02:58:04.569Z,1.30
2023-02-11T03:00:18.432Z,1.34
2023-02-11T03:02:29.491Z,1.40
2023-02-11T03:04:46.692Z,1.48
2023-02-11T03:06:57.986Z,1.54
2023-02-11T03:09:11.385Z,1.57
2023-02-11T03:11:20.093Z,1.63
2023-02-11T03:13:32.131Z,1.67
2023-02-11T03:15:44.086Z,1.72
2023-02-11T03:17:53.381Z,1.71
2023-02-11T03:20:02.746Z,1.77
2023-02-11T03:22:14.794Z,1.80
2023-02-11T03:24:25.241Z,1.82
2023-02-11T03:26:36.632Z,1.84
2023-02-11T03:28:47.499Z,1.90
2023-02-11T03:30:59.911Z,1.98
2023-02-11T03:33:10.156Z,2.03
2023-02-11T03:35:22.689Z,2.10
2023-02-11T03:37:32.370Z,2.12
2023-02-11T03:39:42.022Z,2.15
2023-02-11T03:41:48.717Z,2.21
2023-02-11T03:43:56.234Z,2.26
2023-02-11T03:46:03.184Z,2.26
2023-02-11T03:48:14.542Z,2.32
2023-02-11T03:50:24.189Z,2.33
2023-02-11T03:52:30.061Z,2.31
2023-02-11T03:54:35.040Z,2.30
2023-02-11T03:56:46.533Z,2.26
2023-02-11T03:58:51.827Z,2.30
2023-02-11T04:00:56.408Z,2.26
2023-02-11T04:03:01.352Z,2.27
2023-02-11T04:05:06.835Z,2.23
2023-02-11T04:07:15.304Z,2.21
2023-02-11T04:09:20.175Z,2.18
2023-02-11T04:11:25.032Z,2.19
2023-02-11T04:13:29.884Z,2.22
2023-02-11T04:15:34.799Z,2.21
2023-02-11T04:17:39.737Z,2.23
2023-02-11T04:19:44.835Z,2.23
2023-02-11T04:21:49.390Z,2.25
2023-02-11T04:23:56.833Z,2.24
2023-02-11T04:26:01.852Z,2.24
2023-02-11T04:28:06.771Z,2.24
2023-02-11T04:30:12.796Z,2.28
2023-02-11T04:32:17.844Z,2.32
2023-02-11T04:34:22.668Z,2.37
2023-02-11T04:36:27.592Z,2.42
2023-02-11T04:38:32.498Z,2.44
2023-02-11T04:40:39.957Z,2.45
2023-02-11T04:42:44.834Z,2.40
2023-02-11T04:44:49.707Z,2.41
2023-02-11T04:46:54.579Z,2.43
2023-02-11T04:48:59.462Z,2.49
2023-02-11T04:51:04.609Z,2.48
2023-02-11T04:53:09.191Z,2.42
2023-02-11T04:55:14.034Z,2.42
2023-02-11T04:57:21.562Z,2.45
2023-02-11T04:59:27.563Z,2.48
2023-02-11T05:01:32.448Z,2.51
2023-02-11T05:03:38.239Z,2.51
2023-02-11T05:05:44.224Z,2.48
2023-02-11T05:07:49.017Z,2.45
2023-02-11T05:09:53.880Z,2.47
2023-02-11T05:11:58.688Z,2.50
2023-02-11T05:14:06.105Z,2.53
2023-02-11T05:16:11.014Z,2.53
2023-02-11T05:18:16.309Z,2.59
2023-02-11T05:20:21.693Z,2.59
2023-02-11T05:22:26.566Z,2.56
2023-02-11T05:24:31.444Z,2.57
2023-02-11T05:26:36.275Z,2.62
2023-02-11T05:28:41.298Z,2.67
2023-02-11T05:30:48.794Z,2.71
2023-02-11T05:32:54.365Z,2.69
2023-02-11T05:34:59.357Z,2.67
2023-02-11T05:37:04.242Z,2.73
2023-02-11T05:39:09.111Z,2.79
2023-02-11T05:41:14.639Z,2.83
2023-02-11T05:43:19.510Z,2.85
2023-02-11T05:45:24.313Z,2.87
2023-02-11T05:47:31.855Z,2.89
2023-02-11T05:49:37.719Z,2.93
2023-02-11T05:51:42.527Z,2.98
2023-02-11T05:53:47.329Z,2.98
2023-02-11T05:55:52.475Z,2.97
2023-02-11T05:57:57.579Z,3.04
2023-02-11T06:00:02.449Z,3.09
2023-02-11T06:02:17.313Z,3.07
2023-02-11T06:04:24.777Z,3.07
2023-02-11T06:06:29.565Z,3.07
2023-02-11T06:08:34.438Z,3.03
2023-02-11T06:10:42.514Z,2.98
2023-02-11T06:12:47.683Z,2.92
2023-02-11T06:14:52.502Z,2.88
2023-02-11T06:16:57.313Z,2.81
2023-02-11T06:19:02.164Z,2.78
2023-02-11T06:21:13.133Z,2.76
2023-02-11T06:23:17.969Z,2.72
2023-02-11T06:25:22.992Z,2.66
2023-02-11T06:27:27.845Z,2.63
2023-02-11T06:29:34.079Z,2.56
2023-02-11T06:31:43.111Z,2.53
2023-02-11T06:33:48.043Z,2.49
2023-02-11T06:35:53.104Z,2.45
2023-02-11T06:38:00.893Z,2.44
2023-02-11T06:40:05.740Z,2.41
2023-02-11T06:42:12.090Z,2.42
2023-02-11T06:44:16.909Z,2.41
2023-02-11T06:46:21.819Z,2.37
2023-02-11T06:48:27.113Z,2.34
2023-02-11T06:50:32.106Z,2.32
2023-02-11T06:52:36.912Z,2.29
2023-02-11T06:54:44.398Z,2.31
2023-02-11T06:56:49.281Z,2.32
2023-02-11T06:58:56.273Z,2.32
2023-02-11T07:01:01.517Z,2.33
2023-02-11T07:03:06.637Z,2.37
2023-02-11T07:05:12.171Z,2.41
2023-02-11T07:07:17.073Z,2.42
2023-02-11T07:09:22.102Z,2.42
2023-02-11T07:11:31.561Z,2.42
2023-02-11T07:13:36.477Z,2.39
2023-02-11T07:15:41.434Z,2.35
2023-02-11T07:17:46.265Z,2.34
2023-02-11T07:19:51.141Z,2.34
2023-02-11T07:21:56.040Z,2.40
2023-02-11T07:24:00.854Z,2.47
2023-02-11T07:26:06.997Z,2.58
2023-02-11T07:28:14.656Z,2.65
2023-02-11T07:30:19.541Z,2.80
2023-02-11T07:32:24.436Z,2.94
2023-02-11T07:34:29.307Z,3.01
2023-02-11T07:36:35.188Z,3.17
2023-02-11T07:38:40.883Z,3.33
2023-02-11T07:40:46.405Z,3.44
2023-02-11T07:42:51.360Z,3.50
2023-02-11T07:44:58.784Z,3.57
2023-02-11T07:47:03.733Z,3.62
2023-02-11T07:49:08.623Z,3.62
2023-02-11T07:51:15.781Z,3.63
2023-02-11T07:53:20.625Z,3.74
2023-02-11T07:55:25.467Z,3.78
2023-02-11T07:57:30.507Z,3.82
2023-02-11T07:59:35.521Z,3.90
2023-02-11T08:01:46.079Z,4.01
2023-02-11T08:03:51.176Z,4.12
2023-02-11T08:05:56.094Z,4.07
2023-02-11T08:08:00.901Z,3.94
2023-02-11T08:10:05.813Z,4.07
2023-02-11T08:12:10.713Z,4.20
2023-02-11T08:14:15.932Z,4.14
2023-02-11T08:16:22.313Z,4.15
2023-02-11T08:18:29.876Z,4.15
2023-02-11T08:20:34.701Z,4.22
2023-02-11T08:22:42.562Z,4.27
2023-02-11T08:24:47.412Z,4.36
2023-02-11T08:26:52.517Z,4.42
2023-02-11T08:28:58.367Z,4.50
2023-02-11T08:31:08.842Z,4.59
2023-02-11T08:33:13.753Z,4.64
2023-02-11T08:35:21.349Z,4.73
2023-02-11T08:37:26.177Z,4.67
2023-02-11T08:39:31.031Z,4.74
2023-02-11T08:41:36.352Z,4.73
2023-02-11T08:43:42.396Z,4.71
2023-02-11T08:45:47.771Z,4.72
2023-02-11T08:47:52.604Z,4.68
2023-02-11T08:49:57.417Z,4.53
2023-02-11T08:52:05.022Z,4.69
2023-02-11T08:54:10.228Z,4.69
2023-02-11T08:56:15.828Z,4.73
2023-02-11T08:58:21.286Z,4.66
2023-02-11T09:00:26.419Z,4.60
2023-02-11T09:02:31.272Z,4.61
2023-02-11T09:04:36.144Z,4.63
2023-02-11T09:06:41.075Z,4.66
2023-02-11T09:08:50.745Z,4.66
2023-02-11T09:10:58.889Z,4.74
2023-02-11T09:13:03.882Z,4.81
2023-02-11T09:15:09.468Z,4.71
2023-02-11T09:17:14.296Z,4.86
2023-02-11T09:19:19.493Z,5.02
2023-02-11T09:21:24.056Z,4.86
2023-02-11T09:23:28.859Z,4.89
2023-02-11T09:25:36.288Z,4.93
2023-02-11T09:27:41.117Z,5.01
2023-02-11T09:29:45.904Z,5.02
2023-02-11T09:31:51.132Z,5.08
2023-02-11T09:33:57.285Z,5.17
2023-02-11T09:36:04.050Z,5.14
2023-02-11T09:38:08.900Z,5.26
2023-02-11T09:40:15.301Z,5.37
2023-02-11T09:42:48.069Z,5.61
2023-02-11T09:44:53.601Z,5.79
2023-02-11T09:47:00.962Z,6.01
2023-02-11T09:49:07.546Z,6.11
2023-02-11T09:51:23.930Z,6.08
2023-02-11T09:53:30.634Z,6.17
2023-02-11T09:55:39.874Z,6.19
2023-02-11T09:57:47.418Z,6.09
2023-02-11T09:59:52.252Z,5.98
2023-02-11T10:02:01.776Z,6.17
2023-02-11T10:04:17.037Z,6.38
2023-02-11T10:06:41.869Z,6.51
2023-02-11T10:09:00.256Z,6.68
2023-02-11T10:11:29.691Z,6.75
2023-02-11T10:13:50.462Z,6.85
2023-02-11T10:16:02.266Z,6.81
2023-02-11T10:18:42.329Z,6.94
2023-02-11T10:20:52.785Z,6.89
2023-02-11T10:23:01.358Z,6.97
2023-02-11T10:25:20.136Z,7.06
2023-02-11T10:27:31.432Z,6.99
2023-02-11T10:29:44.936Z,6.82
2023-02-11T10:31:51.431Z,6.72
2023-02-11T10:34:02.577Z,6.68
2023-02-11T10:36:09.019Z,6.63
2023-02-11T10:38:14.900Z,6.54
2023-02-11T10:40:22.560Z,6.60
2023-02-11T10:42:29.614Z,6.51
2023-02-11T10:44:40.958Z,6.43
2023-02-11T10:46:46.386Z,6.44
2023-02-11T10:48:54.314Z,6.48
2023-02-11T10:51:12.304Z,6.51
2023-02-11T10:53:24.506Z,6.53
2023-02-11T10:55:30.665Z,6.61
2023-02-11T10:57:44.755Z,6.80
2023-02-11T10:59:52.289Z,6.86
2023-02-11T11:02:01.074Z,7.03
2023-02-11T11:04:05.964Z,7.09
2023-02-11T11:06:12.772Z,7.05
2023-02-11T11:08:18.629Z,7.16
2023-02-11T11:10:30.849Z,7.28
2023-02-11T11:12:49.558Z,7.24
2023-02-11T11:15:01.395Z,7.15
2023-02-11T11:17:16.179Z,7.01
2023-02-11T11:19:25.445Z,7.06
2023-02-11T11:21:36.498Z,6.95
2023-02-11T11:23:42.803Z,6.89
2023-02-11T11:25:49.436Z,6.85
2023-02-11T11:27:55.173Z,6.85
2023-02-11T11:30:03.551Z,6.74
2023-02-11T11:32:15.327Z,6.80
2023-02-11T11:34:31.840Z,6.84
2023-02-11T11:36:40.166Z,6.84
2023-02-11T11:38:48.554Z,6.86
2023-02-11T11:41:32.949Z,6.87
2023-02-11T11:43:37.812Z,6.86
2023-02-11T11:45:56.261Z,6.90
2023-02-11T11:48:06.638Z,6.95
2023-02-11T11:50:27.974Z,7.06
2023-02-11T11:52:42.881Z,7.17
2023-02-11T11:54:53.460Z,7.20
2023-02-11T11:57:06.097Z,6.97
2023-02-11T11:59:17.515Z,6.86
2023-02-11T12:01:37.323Z,6.85
2023-02-11T12:04:15.694Z,6.76
2023-02-11T12:06:34.583Z,6.61
2023-02-11T12:08:53.703Z,6.68
2023-02-11T12:11:12.564Z,6.80
2023-02-11T12:13:36.800Z,6.94
2023-02-11T12:15:52.318Z,6.97
2023-02-11T12:18:09.178Z,6.90
2023-02-11T12:20:27.266Z,6.85
2023-02-11T12:22:46.265Z,6.91
2023-02-11T12:25:06.636Z,6.97
2023-02-11T12:27:18.797Z,7.09
2023-02-11T12:29:34.942Z,7.21
2023-02-11T12:31:52.712Z,7.20
2023-02-11T12:34:36.927Z,7.13
2023-02-11T12:37:02.541Z,7.05
2023-02-11T12:39:22.237Z,7.11
2023-02-11T12:41:56.473Z,7.22
2023-02-11T12:44:02.021Z,7.43
2023-02-11T12:46:28.812Z,7.53
2023-02-11T12:48:59.852Z,7.68
2023-02-11T12:51:15.872Z,7.71
2023-02-11T12:53:35.018Z,7.71
2023-02-11T12:55:43.907Z,7.74
2023-02-11T12:57:51.538Z,7.81
2023-02-11T13:00:04.393Z,7.57
2023-02-11T13:02:21.574Z,7.64
2023-02-11T13:04:31.799Z,7.71
2023-02-11T13:06:44.601Z,7.56
2023-02-11T13:08:52.214Z,7.28
2023-02-11T13:11:00.630Z,7.24
2023-02-11T13:13:21.007Z,7.21
2023-02-11T13:15:26.830Z,7.28
2023-02-11T13:17:36.502Z,7.43
2023-02-11T13:19:46.950Z,7.44
2023-02-11T13:22:12.220Z,7.40
2023-02-11T13:24:26.580Z,7.39
2023-02-11T13:26:36.854Z,7.35
2023-02-11T13:28:47.698Z,7.29
2023-02-11T13:31:02.468Z,7.19
2023-02-11T13:33:22.506Z,7.20
2023-02-11T13:35:33.019Z,7.14
2023-02-11T13:37:42.387Z,7.19
2023-02-11T13:39:59.729Z,7.20
2023-02-11T13:42:07.558Z,7.22
2023-02-11T13:44:29.022Z,7.11
2023-02-11T13:46:54.331Z,6.89
2023-02-11T13:49:00.795Z,6.87
2023-02-11T13:51:09.094Z,6.91
2023-02-11T13:53:17.355Z,6.97
2023-02-11T13:55:26.352Z,7.03
2023-02-11T13:57:41.945Z,7.09
2023-02-11T13:59:48.941Z,7.13
2023-02-11T14:02:21.906Z,6.97
2023-02-11T14:04:41.088Z,6.96
2023-02-11T14:07:38.295Z,7.03
2023-02-11T14:09:45.787Z,7.11
2023-02-11T14:11:55.445Z,7.03
2023-02-11T14:14:19.233Z,6.87
2023-02-11T14:16:37.484Z,6.82
2023-02-11T14:19:01.962Z,6.74
2023-02-11T14:21:15.674Z,6.72
2023-02-11T14:23:31.139Z,6.66
2023-02-11T14:25:41.822Z,6.65
2023-02-11T14:27:55.371Z,6.69
2023-02-11T14:30:23.521Z,6.78
2023-02-11T14:32:42.759Z,6.86
2023-02-11T14:34:59.863Z,6.79
2023-02-11T14:37:17.134Z,6.82
2023-02-11T14:39:33.529Z,6.99
2023-02-11T14:41:44.586Z,7.01
2023-02-11T14:43:55.465Z,6.96
2023-02-11T14:46:01.627Z,6.99
2023-02-11T14:48:11.666Z,6.99
2023-02-11T14:50:22.163Z,6.94
2023-02-11T14:52:31.392Z,6.72
2023-02-11T14:54:37.935Z,6.60
2023-02-11T14:56:46.937Z,6.55
2023-02-11T14:58:54.559Z,6.53
2023-02-11T15:01:02.036Z,6.53
2023-02-11T15:03:07.069Z,6.55
2023-02-11T15:05:26.231Z,6.58
2023-02-11T15:07:31.320Z,6.56
2023-02-11T15:09:43.392Z,6.50
2023-02-11T15:11:52.337Z,6.50
2023-02-11T15:13:59.854Z,6.54
2023-02-11T15:16:10.119Z,6.50
2023-02-11T15:18:24.332Z,6.38
2023-02-11T15:20:32.033Z,6.38
2023-02-11T15:22:43.324Z,6.47
2023-02-11T15:24:48.600Z,6.54
2023-02-11T15:27:01.270Z,6.55
2023-02-11T15:29:06.161Z,6.61
2023-02-11T15:31:19.366Z,6.66
2023-02-11T15:33:26.176Z,6.68
2023-02-11T15:35:35.197Z,6.63
2023-02-11T15:37:40.118Z,6.54
2023-02-11T15:39:45.595Z,6.60
2023-02-11T15:41:53.479Z,6.65
2023-02-11T15:44:00.992Z,6.70
2023-02-11T15:46:06.145Z,6.75
2023-02-11T15:48:15.266Z,6.65
2023-02-11T15:50:24.270Z,6.57
2023-02-11T15:52:31.024Z,6.61
2023-02-11T15:54:35.952Z,6.67
2023-02-11T15:56:44.359Z,6.58
2023-02-11T15:58:52.087Z,6.68
2023-02-11T16:01:00.210Z,6.75
2023-02-11T16:03:05.407Z,6.83
2023-02-11T16:05:12.503Z,6.79
2023-02-11T16:07:41.555Z,6.82
2023-02-11T16:09:46.660Z,6.73
2023-02-11T16:11:58.965Z,6.78
2023-02-11T16:14:07.113Z,6.84
2023-02-11T16:16:24.876Z,6.84
2023-02-11T16:18:39.544Z,6.80
2023-02-11T16:20:50.600Z,6.74
2023-02-11T16:22:56.013Z,6.72
2023-02-11T16:25:02.599Z,6.78
2023-02-11T16:27:11.217Z,6.79
2023-02-11T16:29:18.712Z,6.76
2023-02-11T16:31:26.516Z,6.75
2023-02-11T16:33:31.816Z,6.77
2023-02-11T16:35:37.515Z,6.83
2023-02-11T16:37:42.433Z,6.84
2023-02-11T16:39:47.729Z,6.86
2023-02-11T16:41:53.848Z,6.83
2023-02-11T16:44:01.454Z,6.84
2023-02-11T16:46:08.932Z,6.72
2023-02-11T16:48:20.937Z,6.73
2023-02-11T16:50:28.522Z,6.76
2023-02-11T16:52:33.497Z,6.74
2023-02-11T16:54:38.316Z,6.59
2023-02-11T16:56:43.712Z,6.63
2023-02-11T16:58:48.720Z,6.68
2023-02-11T17:00:54.124Z,6.74
2023-02-11T17:02:59.547Z,6.75
2023-02-11T17:05:09.416Z,6.60
2023-02-11T17:07:14.655Z,6.53
2023-02-11T17:09:22.565Z,6.47
2023-02-11T17:11:27.382Z,6.46
2023-02-11T17:13:32.313Z,6.48
2023-02-11T17:15:39.625Z,6.44
2023-02-11T17:17:45.939Z,6.42
2023-02-11T17:19:51.452Z,6.42
2023-02-11T17:21:58.992Z,6.42
2023-02-11T17:24:03.959Z,6.38
2023-02-11T17:26:09.256Z,6.40
2023-02-11T17:28:13.960Z,6.31
2023-02-11T17:30:19.690Z,6.33
2023-02-11T17:32:24.968Z,6.24
2023-02-11T17:34:30.320Z,6.18
2023-02-11T17:36:36.720Z,6.25
2023-02-11T17:38:44.262Z,6.28
2023-02-11T17:40:49.234Z,6.32
2023-02-11T17:42:54.089Z,6.23
2023-02-11T17:44:59.054Z,6.20
2023-02-11T17:47:03.860Z,6.11
2023-02-11T17:49:08.863Z,6.17
2023-02-11T17:51:25.344Z,6.16
2023-02-11T17:53:30.130Z,6.15
2023-02-11T17:55:38.914Z,6.06
2023-02-11T17:57:43.813Z,6.05
2023-02-11T17:59:49.248Z,6.04
2023-02-11T18:01:54.885Z,6.08
2023-02-11T18:03:59.634Z,6.01
2023-02-11T18:06:06.206Z,5.94
2023-02-11T18:08:11.241Z,5.97
2023-02-11T18:10:16.455Z,6.01
2023-02-11T18:12:25.798Z,6.03
2023-02-11T18:14:31.004Z,6.02
2023-02-11T18:16:36.654Z,5.96
2023-02-11T18:18:41.774Z,5.95
2023-02-11T18:20:48.299Z,5.94
2023-02-11T18:22:56.301Z,6.03
2023-02-11T18:25:01.506Z,6.01
2023-02-11T18:27:06.516Z,5.94
2023-02-11T18:29:14.289Z,6.01
2023-02-11T18:31:20.277Z,5.98
2023-02-11T18:33:25.263Z,6.02
2023-02-11T18:35:30.465Z,5.94
2023-02-11T18:37:35.069Z,5.88
2023-02-11T18:39:40.494Z,5.93
2023-02-11T18:41:45.404Z,5.90
2023-02-11T18:43:50.208Z,5.93
2023-02-11T18:46:00.213Z,5.96
2023-02-11T18:48:05.409Z,6.02
2023-02-11T18:50:13.873Z,6.05
2023-02-11T18:52:18.875Z,6.05
2023-02-11T18:54:23.775Z,6.09
2023-02-11T18:56:29.484Z,6.11
2023-02-11T18:58:34.333Z,6.12
2023-02-11T19:00:41.458Z,6.08
2023-02-11T19:02:49.163Z,6.10
2023-02-11T19:04:56.498Z,6.20
2023-02-11T19:07:04.354Z,6.22
2023-02-11T19:09:12.162Z,6.28
2023-02-11T19:11:18.864Z,6.24
2023-02-11T19:13:23.765Z,6.27
2023-02-11T19:15:29.582Z,6.27
2023-02-11T19:17:34.418Z,6.24
2023-02-11T19:19:41.997Z,6.25
2023-02-11T19:21:48.950Z,6.31
2023-02-11T19:23:56.048Z,6.32
2023-02-11T19:26:01.825Z,6.39
2023-02-11T19:28:07.043Z,6.44
2023-02-11T19:30:12.942Z,6.48
2023-02-11T19:32:18.318Z,6.52
2023-02-11T19:34:24.152Z,6.52
2023-02-11T19:36:32.136Z,6.60
2023-02-11T19:38:37.554Z,6.67
2023-02-11T19:40:42.407Z,6.75
2023-02-11T19:42:48.043Z,6.80
2023-02-11T19:44:53.016Z,6.85
2023-02-11T19:47:01.306Z,6.92
2023-02-11T19:49:07.132Z,6.97
2023-02-11T19:51:13.527Z,6.93
2023-02-11T19:53:21.292Z,6.99
2023-02-11T19:55:26.194Z,6.91
2023-02-11T19:57:31.132Z,6.89
2023-02-11T19:59:36.067Z,6.85
2023-02-11T20:01:41.118Z,6.83
2023-02-11T20:03:47.411Z,6.81
2023-02-11T20:05:52.529Z,6.80
2023-02-11T20:08:03.646Z,6.75
2023-02-11T20:10:12.114Z,6.70
2023-02-11T20:12:17.038Z,6.63
2023-02-11T20:14:22.028Z,6.55
2023-02-11T20:16:46.196Z,6.56
2023-02-11T20:18:55.890Z,6.53
2023-02-11T20:21:01.842Z,6.50
2023-02-11T20:23:06.773Z,6.53
2023-02-11T20:25:14.169Z,6.48
2023-02-11T20:27:20.125Z,6.52
2023-02-11T20:29:25.676Z,6.54
2023-02-11T20:31:32.223Z,6.55
2023-02-11T20:33:37.598Z,6.59
2023-02-11T20:35:42.473Z,6.60
2023-02-11T20:37:47.291Z,6.48
2023-02-11T20:39:54.717Z,6.43
2023-02-11T20:42:02.156Z,6.43
2023-02-11T20:44:08.954Z,6.41
2023-02-11T20:46:13.807Z,6.35
2023-02-11T20:48:18.784Z,6.34
2023-02-11T20:50:23.823Z,6.25
2023-02-11T20:52:28.839Z,6.20
2023-02-11T20:54:33.697Z,6.21
2023-02-11T20:56:39.582Z,6.12
2023-02-11T20:58:47.364Z,6.15
2023-02-11T21:00:52.469Z,6.22
2023-02-11T21:03:00.270Z,6.26
2023-02-11T21:05:05.129Z,6.29
2023-02-11T21:07:10.053Z,6.30
2023-02-11T21:09:17.490Z,6.30
2023-02-11T21:11:22.591Z,6.33
2023-02-11T21:13:27.823Z,6.34
2023-02-11T21:15:35.052Z,6.38
2023-02-11T21:17:40.121Z,6.43
2023-02-11T21:19:45.320Z,6.43
2023-02-11T21:21:50.179Z,6.40
2023-02-11T21:23:56.196Z,6.38
2023-02-11T21:26:01.136Z,6.39
2023-02-11T21:28:06.454Z,6.37
2023-02-11T21:30:12.161Z,6.26
2023-02-11T21:32:19.608Z,6.26
2023-02-11T21:34:24.664Z,6.24
2023-02-11T21:36:31.148Z,6.27
2023-02-11T21:38:36.421Z,6.35
2023-02-11T21:40:41.800Z,6.43
2023-02-11T21:42:46.712Z,6.53
2023-02-11T21:44:51.508Z,6.55
2023-02-11T21:46:56.565Z,6.46
2023-02-11T21:49:04.140Z,6.41
2023-02-11T21:51:11.606Z,6.41
2023-02-11T21:53:17.296Z,6.39
2023-02-11T21:55:22.282Z,6.40
2023-02-11T21:57:27.154Z,6.43
2023-02-11T21:59:33.583Z,6.45
2023-02-11T22:01:38.531Z,6.54
2023-02-11T22:03:43.442Z,6.51
2023-02-11T22:05:50.991Z,6.61
2023-02-11T22:07:55.864Z,6.72
2023-02-11T22:10:00.668Z,6.80
2023-02-11T22:12:05.533Z,6.80
2023-02-11T22:14:10.671Z,6.85
2023-02-11T22:16:17.088Z,6.84
2023-02-11T22:18:21.975Z,6.82
2023-02-11T22:20:26.831Z,6.80
2023-02-11T22:22:34.782Z,6.80
2023-02-11T22:24:40.909Z,6.76
2023-02-11T22:26:45.714Z,6.74
2023-02-11T22:28:50.989Z,6.75
2023-02-11T22:30:56.012Z,6.71
2023-02-11T22:33:01.030Z,6.70
2023-02-11T22:35:05.939Z,6.74
2023-02-11T22:37:10.859Z,6.79
2023-02-11T22:39:20.073Z,6.76
2023-02-11T22:41:26.186Z,6.73
2023-02-11T22:43:31.035Z,6.76
2023-02-11T22:45:36.601Z,6.79
2023-02-11T22:47:41.856Z,6.79
2023-02-11T22:49:46.412Z,6.79
2023-02-11T22:51:51.294Z,6.82
2023-02-11T22:53:57.899Z,6.80
2023-02-11T22:56:09.586Z,6.82
2023-02-11T22:58:14.539Z,6.78
2023-02-11T23:00:21.013Z,6.76
2023-02-11T23:02:26.058Z,6.71
2023-02-11T23:04:30.926Z,6.66
2023-02-11T23:06:35.905Z,6.65
2023-02-11T23:08:44.146Z,6.60
2023-02-11T23:10:49.591Z,6.61
2023-02-11T23:12:57.023Z,6.69
2023-02-11T23:15:04.886Z,6.70
2023-02-11T23:17:09.903Z,6.73
2023-02-11T23:19:14.757Z,6.70
2023-02-11T23:21:25.221Z,6.67
2023-02-11T23:23:30.100Z,6.63
2023-02-11T23:25:35.444Z,6.64
2023-02-11T23:27:40.536Z,6.52
2023-02-11T23:29:48.009Z,6.42
2023-02-11T23:31:53.057Z,6.39
2023-02-11T23:34:01.110Z,6.39
2023-02-11T23:36:06.063Z,6.43
2023-02-11T23:38:10.949Z,6.38
2023-02-11T23:40:16.825Z,6.27
2023-02-11T23:42:21.646Z,6.20
2023-02-11T23:44:26.496Z,6.06
2023-02-11T23:46:33.939Z,5.96
2023-02-11T23:48:40.600Z,5.92
2023-02-11T23:50:45.662Z,5.95
2023-02-11T23:52:50.622Z,6.03
2023-02-11T23:54:55.477Z,6.00
2023-02-11T23:57:00.676Z,6.02
2023-02-11T23:59:05.493Z,6.04
